createdAt,value
2022-11-04T00:00:24.068Z,998.58
2022-11-04T00:01:21.001Z,998.58
2022-11-04T00:02:21.062Z,998.61
2022-11-04T00:03:20.998Z,998.64
2022-11-04T00:04:20.996Z,998.65
2022-11-04T00:05:20.997Z,998.68
2022-11-04T00:06:20.986Z,998.69
2022-11-04T00:07:20.989Z,998.71
2022-11-04T00:08:20.989Z,998.74
2022-11-04T00:09:21.004Z,998.72
2022-11-04T00:10:20.982Z,998.73
2022-11-04T00:11:20.978Z,998.74
2022-11-04T00:12:20.976Z,998.82
2022-11-04T00:13:20.970Z,998.86
2022-11-04T00:14:20.975Z,998.87
2022-11-04T00:15:20.975Z,998.82
2022-11-04T00:16:20.968Z,998.90
2022-11-04T00:17:20.994Z,998.94
2022-11-04T00:18:20.956Z,998.95
2022-11-04T00:19:20.965Z,998.95
2022-11-04T00:20:20.952Z,998.96
2022-11-04T00:21:20.963Z,998.95
2022-11-04T00:22:20.953Z,998.92
2022-11-04T00:23:20.954Z,998.98
2022-11-04T00:24:20.942Z,998.96
2022-11-04T00:25:20.969Z,999.03
2022-11-04T00:26:20.940Z,999.04
2022-11-04T00:27:20.959Z,999.05
2022-11-04T00:28:20.941Z,999.07
2022-11-04T00:29:20.942Z,999.05
2022-11-04T00:30:20.935Z,999.05
2022-11-04T00:31:20.934Z,999.08
2022-11-04T00:32:20.921Z,999.07
2022-11-04T00:33:20.924Z,999.10
2022-11-04T00:34:20.925Z,999.15
2022-11-04T00:35:20.916Z,999.15
2022-11-04T00:36:20.926Z,999.15
2022-11-04T00:37:20.909Z,999.18
2022-11-04T00:38:20.914Z,999.17
2022-11-04T00:39:20.910Z,999.17
2022-11-04T00:40:20.915Z,999.13
2022-11-04T00:41:20.951Z,999.20
2022-11-04T00:42:20.905Z,999.18
2022-11-04T00:43:20.906Z,999.25
2022-11-04T00:44:20.897Z,999.19
2022-11-04T00:45:20.900Z,999.17
2022-11-04T00:46:20.888Z,999.14
2022-11-04T00:47:20.892Z,999.12
2022-11-04T00:48:20.887Z,999.18
2022-11-04T00:49:20.886Z,999.16
2022-11-04T00:50:20.886Z,999.21
2022-11-04T00:51:20.887Z,999.20
2022-11-04T00:52:20.877Z,999.19
2022-11-04T00:53:20.875Z,999.21
2022-11-04T00:54:20.872Z,999.17
2022-11-04T00:55:20.867Z,999.22
2022-11-04T00:56:20.873Z,999.24
2022-11-04T00:57:20.888Z,999.25
2022-11-04T00:58:20.863Z,999.30
2022-11-04T00:59:20.855Z,999.33
2022-11-04T01:00:20.863Z,999.34
2022-11-04T01:01:21.018Z,999.30
2022-11-04T01:02:20.973Z,999.32
2022-11-04T01:03:20.866Z,999.33
2022-11-04T01:04:20.855Z,999.36
2022-11-04T01:05:20.846Z,999.40
2022-11-04T01:06:20.846Z,999.43
2022-11-04T01:07:20.839Z,999.46
2022-11-04T01:08:20.837Z,999.47
2022-11-04T01:09:20.845Z,999.45
2022-11-04T01:10:20.831Z,999.49
2022-11-04T01:11:20.839Z,999.50
2022-11-04T01:12:20.832Z,999.49
2022-11-04T01:13:20.845Z,999.45
2022-11-04T01:14:20.825Z,999.45
2022-11-04T01:15:20.833Z,999.51
2022-11-04T01:16:20.891Z,999.56
2022-11-04T01:17:20.812Z,999.62
2022-11-04T01:18:20.818Z,999.64
2022-11-04T01:19:20.824Z,999.64
2022-11-04T01:20:20.821Z,999.66
2022-11-04T01:21:20.799Z,999.71
2022-11-04T01:22:20.805Z,999.72
2022-11-04T01:23:20.796Z,999.80
2022-11-04T01:24:20.810Z,999.78
2022-11-04T01:25:20.797Z,999.79
2022-11-04T01:26:20.803Z,999.81
2022-11-04T01:27:20.793Z,999.79
2022-11-04T01:28:20.785Z,999.81
2022-11-04T01:29:20.810Z,999.82
2022-11-04T01:30:20.777Z,999.80
2022-11-04T01:31:20.791Z,999.81
2022-11-04T01:32:20.778Z,999.85
2022-11-04T01:33:20.772Z,999.83
2022-11-04T01:34:20.777Z,999.85
2022-11-04T01:35:20.763Z,999.89
2022-11-04T01:36:20.766Z,999.91
2022-11-04T01:37:20.765Z,999.94
2022-11-04T01:38:20.763Z,999.93
2022-11-04T01:39:20.766Z,999.91
2022-11-04T01:40:20.767Z,999.89
2022-11-04T01:41:20.760Z,999.92
2022-11-04T01:42:20.755Z,999.92
2022-11-04T01:43:20.748Z,999.94
2022-11-04T01:44:20.753Z,999.95
2022-11-04T01:45:20.767Z,999.94
2022-11-04T01:46:20.738Z,999.98
2022-11-04T01:47:20.737Z,999.94
2022-11-04T01:48:20.744Z,999.89
2022-11-04T01:49:20.731Z,999.98
2022-11-04T01:50:20.729Z,999.91
2022-11-04T01:51:20.729Z,999.97
2022-11-04T01:52:20.725Z,1000.02
2022-11-04T01:53:20.719Z,999.98
2022-11-04T01:54:20.716Z,1000.04
2022-11-04T01:55:20.717Z,1000.03
2022-11-04T01:56:20.721Z,1000.03
2022-11-04T01:57:20.708Z,1000.05
2022-11-04T01:58:20.714Z,1000.06
2022-11-04T01:59:20.705Z,999.97
2022-11-04T02:00:20.704Z,1000.00
2022-11-04T02:01:20.876Z,1000.02
2022-11-04T02:02:20.909Z,1000.01
2022-11-04T02:03:20.704Z,1000.05
2022-11-04T02:04:20.719Z,1000.09
2022-11-04T02:05:20.696Z,1000.06
2022-11-04T02:06:20.690Z,1000.04
2022-11-04T02:07:20.687Z,1000.06
2022-11-04T02:08:20.684Z,1000.03
2022-11-04T02:09:20.682Z,1000.06
2022-11-04T02:10:20.676Z,1000.08
2022-11-04T02:11:20.673Z,1000.04
2022-11-04T02:12:20.669Z,1000.03
2022-11-04T02:13:20.671Z,1000.06
2022-11-04T02:14:20.666Z,1000.03
2022-11-04T02:15:20.663Z,999.99
2022-11-04T02:16:20.684Z,1000.01
2022-11-04T02:17:20.675Z,999.96
2022-11-04T02:18:20.662Z,999.95
2022-11-04T02:19:20.657Z,999.92
2022-11-04T02:20:20.652Z,999.88
2022-11-04T02:21:20.661Z,999.91
2022-11-04T02:22:20.647Z,999.84
2022-11-04T02:23:20.649Z,999.80
2022-11-04T02:24:20.649Z,999.83
2022-11-04T02:25:20.656Z,999.81
2022-11-04T02:26:20.633Z,999.84
2022-11-04T02:27:20.639Z,999.84
2022-11-04T02:28:20.637Z,999.83
2022-11-04T02:29:20.641Z,999.83
2022-11-04T02:30:20.622Z,999.82
2022-11-04T02:31:20.637Z,999.80
2022-11-04T02:32:20.625Z,999.80
2022-11-04T02:33:20.633Z,999.82
2022-11-04T02:34:20.624Z,999.81
2022-11-04T02:35:20.614Z,999.79
2022-11-04T02:36:20.616Z,999.82
2022-11-04T02:37:20.613Z,999.83
2022-11-04T02:38:20.609Z,999.82
2022-11-04T02:39:20.609Z,999.81
2022-11-04T02:40:20.600Z,999.85
2022-11-04T02:41:20.604Z,999.85
2022-11-04T02:42:20.597Z,999.82
2022-11-04T02:43:20.597Z,999.84
2022-11-04T02:44:20.592Z,999.84
2022-11-04T02:45:20.597Z,999.83
2022-11-04T02:46:20.588Z,999.84
2022-11-04T02:47:20.584Z,999.86
2022-11-04T02:48:20.580Z,999.87
2022-11-04T02:49:20.603Z,999.82
2022-11-04T02:50:20.584Z,999.80
2022-11-04T02:51:20.580Z,999.81
2022-11-04T02:52:20.579Z,999.86
2022-11-04T02:53:20.571Z,999.85
2022-11-04T02:54:20.566Z,999.83
2022-11-04T02:55:20.570Z,999.89
2022-11-04T02:56:20.564Z,999.84
2022-11-04T02:57:20.569Z,999.89
2022-11-04T02:58:20.554Z,999.89
2022-11-04T02:59:20.551Z,999.87
2022-11-04T03:00:20.553Z,999.86
2022-11-04T03:01:20.739Z,999.85
2022-11-04T03:02:20.576Z,999.86
2022-11-04T03:03:20.547Z,999.86
2022-11-04T03:04:20.536Z,999.83
2022-11-04T03:05:20.551Z,999.84
2022-11-04T03:06:20.531Z,999.79
2022-11-04T03:07:20.539Z,999.82
2022-11-04T03:08:20.525Z,999.75
2022-11-04T03:09:20.526Z,999.72
2022-11-04T03:10:20.523Z,999.78
2022-11-04T03:11:20.542Z,999.77
2022-11-04T03:12:20.522Z,999.74
2022-11-04T03:13:20.524Z,999.71
2022-11-04T03:14:20.512Z,999.74
2022-11-04T03:15:20.507Z,999.75
2022-11-04T03:16:20.508Z,999.75
2022-11-04T03:17:20.502Z,999.71
2022-11-04T03:18:20.499Z,999.79
2022-11-04T03:19:20.502Z,999.76
2022-11-04T03:20:20.502Z,999.78
2022-11-04T03:21:20.512Z,999.68
2022-11-04T03:22:20.519Z,999.73
2022-11-04T03:23:20.488Z,999.72
2022-11-04T03:24:20.482Z,999.71
2022-11-04T03:25:20.492Z,999.68
2022-11-04T03:26:20.511Z,999.72
2022-11-04T03:27:20.475Z,999.73
2022-11-04T03:28:20.477Z,999.75
2022-11-04T03:29:20.469Z,999.78
2022-11-04T03:30:20.499Z,999.74
2022-11-04T03:31:20.472Z,999.76
2022-11-04T03:32:20.466Z,999.78
2022-11-04T03:33:20.465Z,999.77
2022-11-04T03:34:20.465Z,999.76
2022-11-04T03:35:20.468Z,999.80
2022-11-04T03:36:20.462Z,999.79
2022-11-04T03:37:20.471Z,999.78
2022-11-04T03:38:20.445Z,999.73
2022-11-04T03:39:20.452Z,999.77
2022-11-04T03:40:20.437Z,999.73
2022-11-04T03:41:20.449Z,999.72
2022-11-04T03:42:20.912Z,999.73
2022-11-04T03:43:20.441Z,999.69
2022-11-04T03:44:20.434Z,999.66
2022-11-04T03:45:20.451Z,999.67
2022-11-04T03:46:20.434Z,999.67
2022-11-04T03:47:20.436Z,999.67
2022-11-04T03:48:20.428Z,999.65
2022-11-04T03:49:20.416Z,999.62
2022-11-04T03:50:20.427Z,999.71
2022-11-04T03:51:20.415Z,999.74
2022-11-04T03:52:20.415Z,999.73
2022-11-04T03:53:20.484Z,999.76
2022-11-04T03:54:20.407Z,999.75
2022-11-04T03:55:20.408Z,999.77
2022-11-04T03:56:20.404Z,999.74
2022-11-04T03:57:20.411Z,999.74
2022-11-04T03:58:20.393Z,999.72
2022-11-04T03:59:20.389Z,999.72
2022-11-04T04:00:20.405Z,999.71
2022-11-04T04:01:20.501Z,999.71
2022-11-04T04:02:20.421Z,999.70
2022-11-04T04:03:20.390Z,999.71
2022-11-04T04:04:20.386Z,999.68
2022-11-04T04:05:20.380Z,999.66
2022-11-04T04:06:20.377Z,999.68
2022-11-04T04:07:20.381Z,999.67
2022-11-04T04:08:20.368Z,999.65
2022-11-04T04:09:20.389Z,999.68
2022-11-04T04:10:20.363Z,999.62
2022-11-04T04:11:20.359Z,999.60
2022-11-04T04:12:20.366Z,999.62
2022-11-04T04:13:20.354Z,999.59
2022-11-04T04:14:20.364Z,999.58
2022-11-04T04:15:20.348Z,999.59
2022-11-04T04:16:23.315Z,999.55
2022-11-04T04:17:20.355Z,999.56
2022-11-04T04:18:20.367Z,999.63
2022-11-04T04:19:20.341Z,999.61
2022-11-04T04:20:20.346Z,999.61
2022-11-04T04:21:20.335Z,999.66
2022-11-04T04:22:20.331Z,999.65
2022-11-04T04:23:20.323Z,999.64
2022-11-04T04:24:20.326Z,999.69
2022-11-04T04:25:20.346Z,999.67
2022-11-04T04:26:20.320Z,999.71
2022-11-04T04:27:20.317Z,999.66
2022-11-04T04:28:20.317Z,999.69
2022-11-04T04:29:20.323Z,999.71
2022-11-04T04:30:20.326Z,999.66
2022-11-04T04:31:20.313Z,999.72
2022-11-04T04:32:20.304Z,999.74
2022-11-04T04:33:20.305Z,999.74
2022-11-04T04:34:20.300Z,999.83
2022-11-04T04:35:20.304Z,999.80
2022-11-04T04:36:20.311Z,999.83
2022-11-04T04:37:20.298Z,999.86
2022-11-04T04:38:20.293Z,999.86
2022-11-04T04:39:20.294Z,999.89
2022-11-04T04:40:24.842Z,999.90
2022-11-04T04:41:20.297Z,999.87
2022-11-04T04:42:20.283Z,999.87
2022-11-04T04:43:20.289Z,999.88
2022-11-04T04:44:20.279Z,999.90
2022-11-04T04:45:20.275Z,999.87
2022-11-04T04:46:20.273Z,999.86
2022-11-04T04:47:20.376Z,999.85
2022-11-04T04:48:20.271Z,999.88
2022-11-04T04:49:20.256Z,999.85
2022-11-04T04:50:20.268Z,999.84
2022-11-04T04:51:20.257Z,999.84
2022-11-04T04:52:20.252Z,999.83
2022-11-04T04:53:20.243Z,999.83
2022-11-04T04:54:20.253Z,999.85
2022-11-04T04:55:20.251Z,999.87
2022-11-04T04:56:20.246Z,999.86
2022-11-04T04:57:20.253Z,999.89
2022-11-04T04:58:20.239Z,999.90
2022-11-04T04:59:20.233Z,999.90
2022-11-04T05:00:20.249Z,999.90
2022-11-04T05:01:20.417Z,999.87
2022-11-04T05:02:20.437Z,999.85
2022-11-04T05:03:20.238Z,999.88
2022-11-04T05:04:20.213Z,999.88
2022-11-04T05:05:20.232Z,999.87
2022-11-04T05:06:20.212Z,999.87
2022-11-04T05:07:20.213Z,999.89
2022-11-04T05:08:20.211Z,999.83
2022-11-04T05:09:20.227Z,999.82
2022-11-04T05:10:20.200Z,999.77
2022-11-04T05:11:24.453Z,999.80
2022-11-04T05:12:20.218Z,999.79
2022-11-04T05:13:20.319Z,999.76
2022-11-04T05:14:20.251Z,999.78
2022-11-04T05:15:20.200Z,999.78
2022-11-04T05:16:20.194Z,999.78
2022-11-04T05:17:20.178Z,999.79
2022-11-04T05:18:20.256Z,999.80
2022-11-04T05:19:20.183Z,999.83
2022-11-04T05:20:20.184Z,999.84
2022-11-04T05:21:20.177Z,999.85
2022-11-04T05:22:20.174Z,999.82
2022-11-04T05:23:20.170Z,999.82
2022-11-04T05:24:20.174Z,999.83
2022-11-04T05:25:20.157Z,999.79
2022-11-04T05:26:20.170Z,999.79
2022-11-04T05:27:20.166Z,999.80
2022-11-04T05:28:20.157Z,999.80
2022-11-04T05:29:20.178Z,999.80
2022-11-04T05:30:20.151Z,999.81
2022-11-04T05:31:20.149Z,999.80
2022-11-04T05:32:20.146Z,999.82
2022-11-04T05:33:20.141Z,999.85
2022-11-04T05:34:20.160Z,999.87
2022-11-04T05:35:20.133Z,999.89
2022-11-04T05:36:20.141Z,999.92
2022-11-04T05:37:20.136Z,999.94
2022-11-04T05:38:20.135Z,999.94
2022-11-04T05:39:20.122Z,999.95
2022-11-04T05:40:20.125Z,999.94
2022-11-04T05:41:20.112Z,999.97
2022-11-04T05:42:20.118Z,999.96
2022-11-04T05:43:20.131Z,999.94
2022-11-04T05:44:20.111Z,999.96
2022-11-04T05:45:20.123Z,1000.01
2022-11-04T05:46:20.108Z,1000.01
2022-11-04T05:47:20.109Z,1000.00
2022-11-04T05:48:20.100Z,1000.02
2022-11-04T05:49:20.102Z,999.99
2022-11-04T05:50:20.092Z,999.98
2022-11-04T05:51:20.094Z,1000.01
2022-11-04T05:52:20.087Z,999.94
2022-11-04T05:53:20.184Z,1000.00
2022-11-04T05:54:20.085Z,1000.00
2022-11-04T05:55:20.081Z,999.99
2022-11-04T05:56:20.083Z,1000.03
2022-11-04T05:57:20.077Z,1000.03
2022-11-04T05:58:20.074Z,1000.06
2022-11-04T05:59:20.070Z,1000.06
2022-11-04T06:00:20.115Z,1000.07
2022-11-04T06:01:20.201Z,1000.07
2022-11-04T06:02:20.284Z,1000.05
2022-11-04T06:03:20.170Z,1000.09
2022-11-04T06:04:20.066Z,1000.09
2022-11-04T06:05:20.046Z,1000.03
2022-11-04T06:06:20.055Z,1000.05
2022-11-04T06:07:20.045Z,1000.09
2022-11-04T06:08:20.039Z,1000.09
2022-11-04T06:09:20.043Z,1000.11
2022-11-04T06:10:20.039Z,1000.08
2022-11-04T06:11:20.032Z,1000.08
2022-11-04T06:12:20.038Z,1000.11
2022-11-04T06:13:20.037Z,1000.14
2022-11-04T06:14:20.032Z,1000.15
2022-11-04T06:15:20.035Z,1000.22
2022-11-04T06:16:20.029Z,1000.23
2022-11-04T06:17:20.052Z,1000.24
2022-11-04T06:18:20.043Z,1000.25
2022-11-04T06:19:20.008Z,1000.22
2022-11-04T06:20:20.013Z,1000.28
2022-11-04T06:21:20.023Z,1000.26
2022-11-04T06:22:20.012Z,1000.29
2022-11-04T06:23:20.005Z,1000.24
2022-11-04T06:24:19.993Z,1000.31
2022-11-04T06:25:19.993Z,1000.30
2022-11-04T06:26:23.813Z,1000.33
2022-11-04T06:27:19.996Z,1000.36
2022-11-04T06:28:19.995Z,1000.36
2022-11-04T06:29:19.993Z,1000.38
2022-11-04T06:30:19.991Z,1000.41
2022-11-04T06:31:19.985Z,1000.47
2022-11-04T06:32:19.982Z,1000.48
2022-11-04T06:33:19.994Z,1000.50
2022-11-04T06:34:19.980Z,1000.53
2022-11-04T06:35:19.992Z,1000.51
2022-11-04T06:36:19.975Z,1000.50
2022-11-04T06:37:19.970Z,1000.49
2022-11-04T06:38:19.980Z,1000.50
2022-11-04T06:39:19.961Z,1000.49
2022-11-04T06:40:19.959Z,1000.47
2022-11-04T06:41:19.956Z,1000.47
2022-11-04T06:42:19.961Z,1000.47
2022-11-04T06:43:19.956Z,1000.45
2022-11-04T06:44:19.940Z,1000.48
2022-11-04T06:45:19.951Z,1000.42
2022-11-04T06:46:19.940Z,1000.45
2022-11-04T06:47:24.560Z,1000.45
2022-11-04T06:48:19.944Z,1000.46
2022-11-04T06:49:19.974Z,1000.46
2022-11-04T06:50:19.927Z,1000.48
2022-11-04T06:51:19.936Z,1000.54
2022-11-04T06:52:19.933Z,1000.51
2022-11-04T06:53:19.948Z,1000.59
2022-11-04T06:54:19.929Z,1000.59
2022-11-04T06:55:19.923Z,1000.61
2022-11-04T06:56:19.919Z,1000.64
2022-11-04T06:57:19.916Z,1000.65
2022-11-04T06:58:19.923Z,1000.67
2022-11-04T06:59:19.911Z,1000.66
2022-11-04T07:00:19.911Z,1000.73
2022-11-04T07:01:22.195Z,1000.76
2022-11-04T07:02:20.039Z,1000.76
2022-11-04T07:03:19.904Z,1000.79
2022-11-04T07:04:19.905Z,1000.78
2022-11-04T07:05:19.918Z,1000.81
2022-11-04T07:06:19.910Z,1000.80
2022-11-04T07:07:19.892Z,1000.86
2022-11-04T07:08:19.907Z,1000.82
2022-11-04T07:09:19.906Z,1000.81
2022-11-04T07:10:19.889Z,1000.82
2022-11-04T07:11:19.921Z,1000.83
2022-11-04T07:12:19.895Z,1000.88
2022-11-04T07:13:19.878Z,1000.91
2022-11-04T07:14:19.877Z,1000.93
2022-11-04T07:15:23.255Z,1000.98
2022-11-04T07:16:19.892Z,1000.95
2022-11-04T07:17:19.873Z,1000.98
2022-11-04T07:18:19.881Z,1001.04
2022-11-04T07:19:19.876Z,1001.02
2022-11-04T07:20:19.869Z,1001.06
2022-11-04T07:21:19.891Z,1001.10
2022-11-04T07:22:19.875Z,1001.12
2022-11-04T07:23:19.872Z,1001.10
2022-11-04T07:24:19.908Z,1001.12
2022-11-04T07:25:19.863Z,1001.13
2022-11-04T07:26:19.860Z,1001.15
2022-11-04T07:27:19.861Z,1001.18
2022-11-04T07:28:19.862Z,1001.21
2022-11-04T07:29:19.860Z,1001.22
2022-11-04T07:30:19.872Z,1001.19
2022-11-04T07:31:19.848Z,1001.21
2022-11-04T07:32:19.845Z,1001.28
2022-11-04T07:33:19.975Z,1001.27
2022-11-04T07:34:19.847Z,1001.27
2022-11-04T07:35:19.837Z,1001.25
2022-11-04T07:36:19.856Z,1001.30
2022-11-04T07:37:19.858Z,1001.29
2022-11-04T07:38:19.840Z,1001.30
2022-11-04T07:39:19.836Z,1001.36
2022-11-04T07:40:19.838Z,1001.39
2022-11-04T07:41:19.835Z,1001.45
2022-11-04T07:42:19.830Z,1001.48
2022-11-04T07:43:19.832Z,1001.49
2022-11-04T07:44:19.825Z,1001.53
2022-11-04T07:45:19.821Z,1001.49
2022-11-04T07:46:19.824Z,1001.53
2022-11-04T07:47:19.825Z,1001.54
2022-11-04T07:48:19.816Z,1001.52
2022-11-04T07:49:19.825Z,1001.53
2022-11-04T07:50:19.853Z,1001.55
2022-11-04T07:51:19.814Z,1001.64
2022-11-04T07:52:19.818Z,1001.59
2022-11-04T07:53:19.823Z,1001.60
2022-11-04T07:54:19.855Z,1001.64
2022-11-04T07:55:19.806Z,1001.65
2022-11-04T07:56:19.806Z,1001.61
2022-11-04T07:57:19.801Z,1001.65
2022-11-04T07:58:19.803Z,1001.60
2022-11-04T07:59:19.796Z,1001.54
2022-11-04T08:00:19.793Z,1001.56
2022-11-04T08:01:19.854Z,1001.54
2022-11-04T08:02:25.792Z,1001.53
2022-11-04T08:03:19.924Z,1001.50
2022-11-04T08:04:19.796Z,1001.53
2022-11-04T08:05:19.796Z,1001.55
2022-11-04T08:06:19.783Z,1001.51
2022-11-04T08:07:19.779Z,1001.53
2022-11-04T08:08:19.784Z,1001.53
2022-11-04T08:09:19.885Z,1001.55
2022-11-04T08:10:19.779Z,1001.49
2022-11-04T08:11:19.775Z,1001.55
2022-11-04T08:12:19.766Z,1001.54
2022-11-04T08:13:19.776Z,1001.55
2022-11-04T08:14:19.769Z,1001.53
2022-11-04T08:15:19.774Z,1001.57
2022-11-04T08:16:19.761Z,1001.54
2022-11-04T08:17:19.775Z,1001.56
2022-11-04T08:18:19.768Z,1001.55
2022-11-04T08:19:19.751Z,1001.57
2022-11-04T08:20:19.759Z,1001.61
2022-11-04T08:21:19.748Z,1001.57
2022-11-04T08:22:19.753Z,1001.59
2022-11-04T08:23:19.750Z,1001.58
2022-11-04T08:24:19.744Z,1001.60
2022-11-04T08:25:19.765Z,1001.58
2022-11-04T08:26:19.744Z,1001.61
2022-11-04T08:27:19.743Z,1001.56
2022-11-04T08:28:19.747Z,1001.58
2022-11-04T08:29:19.742Z,1001.57
2022-11-04T08:30:19.729Z,1001.58
2022-11-04T08:31:19.739Z,1001.57
2022-11-04T08:32:19.722Z,1001.53
2022-11-04T08:33:19.721Z,1001.52
2022-11-04T08:34:19.731Z,1001.53
2022-11-04T08:35:19.728Z,1001.49
2022-11-04T08:36:19.719Z,1001.57
2022-11-04T08:37:19.717Z,1001.53
2022-11-04T08:38:19.720Z,1001.51
2022-11-04T08:39:19.711Z,1001.52
2022-11-04T08:40:19.711Z,1001.46
2022-11-04T08:41:19.727Z,1001.53
2022-11-04T08:42:19.748Z,1001.47
2022-11-04T08:43:19.707Z,1001.53
2022-11-04T08:44:19.703Z,1001.53
2022-11-04T08:45:19.705Z,1001.56
2022-11-04T08:46:19.715Z,1001.60
2022-11-04T08:47:19.687Z,1001.59
2022-11-04T08:48:19.690Z,1001.60
2022-11-04T08:49:21.474Z,1001.64
2022-11-04T08:50:19.693Z,1001.62
2022-11-04T08:51:19.687Z,1001.64
2022-11-04T08:52:19.687Z,1001.63
2022-11-04T08:53:19.675Z,1001.64
2022-11-04T08:54:19.682Z,1001.66
2022-11-04T08:55:19.673Z,1001.64
2022-11-04T08:56:19.678Z,1001.66
2022-11-04T08:57:19.687Z,1001.64
2022-11-04T08:58:19.672Z,1001.63
2022-11-04T08:59:19.677Z,1001.65
2022-11-04T09:00:19.672Z,1001.67
2022-11-04T09:01:19.759Z,1001.65
2022-11-04T09:02:19.654Z,1001.64
2022-11-04T09:03:19.736Z,1001.67
2022-11-04T09:04:19.677Z,1001.66
2022-11-04T09:05:19.662Z,1001.71
2022-11-04T09:06:19.666Z,1001.70
2022-11-04T09:07:19.647Z,1001.72
2022-11-04T09:08:19.645Z,1001.72
2022-11-04T09:09:19.639Z,1001.77
2022-11-04T09:10:19.645Z,1001.72
2022-11-04T09:11:19.645Z,1001.71
2022-11-04T09:12:19.636Z,1001.70
2022-11-04T09:13:19.778Z,1001.73
2022-11-04T09:14:19.636Z,1001.72
2022-11-04T09:15:19.630Z,1001.71
2022-11-04T09:16:19.632Z,1001.69
2022-11-04T09:17:19.641Z,1001.66
2022-11-04T09:18:19.621Z,1001.60
2022-11-04T09:19:19.616Z,1001.61
2022-11-04T09:20:19.612Z,1001.57
2022-11-04T09:21:19.611Z,1001.57
2022-11-04T09:22:19.621Z,1001.54
2022-11-04T09:23:19.618Z,1001.52
2022-11-04T09:24:19.614Z,1001.54
2022-11-04T09:25:19.609Z,1001.55
2022-11-04T09:26:19.599Z,1001.54
2022-11-04T09:27:19.609Z,1001.56
2022-11-04T09:28:19.605Z,1001.54
2022-11-04T09:29:19.804Z,1001.58
2022-11-04T09:30:19.598Z,1001.57
2022-11-04T09:31:19.598Z,1001.62
2022-11-04T09:32:19.589Z,1001.61
2022-11-04T09:33:19.587Z,1001.62
2022-11-04T09:34:19.580Z,1001.63
2022-11-04T09:35:19.586Z,1001.65
2022-11-04T09:36:19.576Z,1001.66
2022-11-04T09:37:19.574Z,1001.68
2022-11-04T09:38:19.582Z,1001.67
2022-11-04T09:39:19.573Z,1001.65
2022-11-04T09:40:19.565Z,1001.68
2022-11-04T09:41:19.577Z,1001.63
2022-11-04T09:42:19.805Z,1001.63
2022-11-04T09:43:19.564Z,1001.61
2022-11-04T09:44:19.563Z,1001.61
2022-11-04T09:45:22.584Z,1001.56
2022-11-04T09:46:19.555Z,1001.57
2022-11-04T09:47:21.863Z,1001.60
2022-11-04T09:48:19.550Z,1001.57
2022-11-04T09:49:19.565Z,1001.55
2022-11-04T09:50:19.567Z,1001.56
2022-11-04T09:51:39.628Z,1001.56
2022-11-04T09:52:19.546Z,1001.59
2022-11-04T09:53:19.540Z,1001.55
2022-11-04T09:54:19.536Z,1001.60
2022-11-04T09:55:19.538Z,1001.58
2022-11-04T09:56:19.538Z,1001.57
2022-11-04T09:57:19.531Z,1001.62
2022-11-04T09:58:19.586Z,1001.64
2022-11-04T09:59:19.531Z,1001.67
2022-11-04T10:00:19.595Z,1001.68
2022-11-04T10:01:19.910Z,1001.74
2022-11-04T10:02:22.253Z,1001.74
2022-11-04T10:03:19.530Z,1001.77
2022-11-04T10:04:19.537Z,1001.81
2022-11-04T10:05:19.510Z,1001.82
2022-11-04T10:06:19.515Z,1001.85
2022-11-04T10:07:19.517Z,1001.81
2022-11-04T10:08:19.515Z,1001.79
2022-11-04T10:09:19.511Z,1001.83
2022-11-04T10:10:19.569Z,1001.82
2022-11-04T10:11:19.497Z,1001.83
2022-11-04T10:12:19.495Z,1001.80
2022-11-04T10:13:19.495Z,1001.77
2022-11-04T10:14:19.509Z,1001.80
2022-11-04T10:15:19.489Z,1001.78
2022-11-04T10:16:19.499Z,1001.77
2022-11-04T10:17:19.591Z,1001.83
2022-11-04T10:18:19.490Z,1001.84
2022-11-04T10:19:19.478Z,1001.81
2022-11-04T10:20:19.580Z,1001.82
2022-11-04T10:21:19.477Z,1001.85
2022-11-04T10:22:19.484Z,1001.87
2022-11-04T10:23:19.475Z,1001.87
2022-11-04T10:24:19.476Z,1001.88
2022-11-04T10:25:19.470Z,1001.90
2022-11-04T10:26:19.478Z,1001.87
2022-11-04T10:27:19.460Z,1001.90
2022-11-04T10:28:19.461Z,1001.93
2022-11-04T10:29:19.459Z,1001.92
2022-11-04T10:30:19.571Z,1001.89
2022-11-04T10:31:19.472Z,1001.92
2022-11-04T10:32:22.358Z,1001.94
2022-11-04T10:33:19.576Z,1001.97
2022-11-04T10:34:19.453Z,1001.96
2022-11-04T10:35:19.454Z,1001.94
2022-11-04T10:36:19.455Z,1001.99
2022-11-04T10:37:19.466Z,1001.99
2022-11-04T10:38:19.433Z,1001.98
2022-11-04T10:39:19.459Z,1002.00
2022-11-04T10:40:19.476Z,1001.99
2022-11-04T10:41:19.439Z,1002.00
2022-11-04T10:42:19.427Z,1001.99
2022-11-04T10:43:19.420Z,1001.96
2022-11-04T10:44:19.418Z,1001.96
2022-11-04T10:45:19.425Z,1001.99
2022-11-04T10:46:19.423Z,1001.98
2022-11-04T10:47:19.422Z,1001.99
2022-11-04T10:48:19.411Z,1001.99
2022-11-04T10:49:19.531Z,1002.04
2022-11-04T10:50:28.884Z,1002.03
2022-11-04T10:51:19.410Z,1002.04
2022-11-04T10:52:23.067Z,1002.04
2022-11-04T10:53:19.399Z,1002.03
2022-11-04T10:54:19.455Z,1002.02
2022-11-04T10:55:19.402Z,1002.06
2022-11-04T10:56:19.413Z,1002.06
2022-11-04T10:57:19.391Z,1002.04
2022-11-04T10:58:19.401Z,1002.05
2022-11-04T10:59:20.634Z,1002.02
2022-11-04T11:00:19.391Z,1002.05
2022-11-04T11:01:19.505Z,1002.09
2022-11-04T11:02:19.492Z,1002.08
2022-11-04T11:03:19.386Z,1002.11
2022-11-04T11:04:19.381Z,1002.15
2022-11-04T11:05:19.371Z,1002.16
2022-11-04T11:06:19.389Z,1002.20
2022-11-04T11:07:19.373Z,1002.21
2022-11-04T11:08:19.366Z,1002.21
2022-11-04T11:09:19.386Z,1002.21
2022-11-04T11:10:19.360Z,1002.21
2022-11-04T11:11:19.362Z,1002.21
2022-11-04T11:12:49.443Z,1002.23
2022-11-04T11:13:19.355Z,1002.23
2022-11-04T11:14:19.357Z,1002.25
2022-11-04T11:15:19.354Z,1002.27
2022-11-04T11:16:19.354Z,1002.27
2022-11-04T11:17:19.342Z,1002.30
2022-11-04T11:18:19.347Z,1002.29
2022-11-04T11:19:19.448Z,1002.31
2022-11-04T11:20:19.347Z,1002.31
2022-11-04T11:21:19.335Z,1002.32
2022-11-04T11:22:19.353Z,1002.31
2022-11-04T11:23:19.332Z,1002.33
2022-11-04T11:24:19.344Z,1002.38
2022-11-04T11:25:19.344Z,1002.34
2022-11-04T11:26:19.329Z,1002.31
2022-11-04T11:27:19.328Z,1002.29
2022-11-04T11:28:19.319Z,1002.29
2022-11-04T11:29:19.319Z,1002.31
2022-11-04T11:30:19.317Z,1002.26
2022-11-04T11:31:19.314Z,1002.23
2022-11-04T11:32:19.319Z,1002.23
2022-11-04T11:33:19.304Z,1002.21
2022-11-04T11:34:19.309Z,1002.21
2022-11-04T11:35:19.320Z,1002.27
2022-11-04T11:36:19.311Z,1002.25
2022-11-04T11:37:19.309Z,1002.23
2022-11-04T11:38:19.318Z,1002.21
2022-11-04T11:39:19.290Z,1002.22
2022-11-04T11:40:19.295Z,1002.24
2022-11-04T11:41:24.953Z,1002.23
2022-11-04T11:42:19.318Z,1002.22
2022-11-04T11:43:19.293Z,1002.24
2022-11-04T11:44:19.282Z,1002.22
2022-11-04T11:45:19.284Z,1002.21
2022-11-04T11:46:19.285Z,1002.23
2022-11-04T11:47:19.275Z,1002.18
2022-11-04T11:48:19.279Z,1002.18
2022-11-04T11:49:19.274Z,1002.22
2022-11-04T11:50:19.301Z,1002.21
2022-11-04T11:51:21.965Z,1002.23
2022-11-04T11:52:19.267Z,1002.22
2022-11-04T11:53:19.262Z,1002.26
2022-11-04T11:54:19.280Z,1002.27
2022-11-04T11:55:19.262Z,1002.25
2022-11-04T11:56:19.255Z,1002.31
2022-11-04T11:57:24.929Z,1002.30
2022-11-04T12:01:24.138Z,1002.39
2022-11-04T12:02:19.393Z,1002.37
2022-11-04T12:03:20.926Z,1002.39
2022-11-04T12:06:19.556Z,1002.39
2022-11-04T12:09:22.637Z,1002.41
2022-11-04T12:10:48.699Z,1002.40
2022-11-04T12:11:19.231Z,1002.41
2022-11-04T12:12:19.219Z,1002.43
2022-11-04T12:13:25.931Z,1002.43
2022-11-04T12:14:19.212Z,1002.41
2022-11-04T12:15:19.213Z,1002.39
2022-11-04T12:16:19.213Z,1002.38
2022-11-04T12:17:19.211Z,1002.36
2022-11-04T12:18:19.214Z,1002.37
2022-11-04T12:19:19.201Z,1002.37
2022-11-04T12:20:19.195Z,1002.36
2022-11-04T12:21:19.200Z,1002.35
2022-11-04T12:22:19.192Z,1002.40